Rokkomaru — JD3738 — position and weather

sailwx.info

Track history (hours):
 
Tides and Currents Weather Stations Pressure Air Temp Water Temp Dewpoint Dewpoint Depression Visibility Wind Speed Wind Dir Waves Ship Positions

Rokkomaru

Last reported at 2017-Nov-20 00:30 UTC. Time now 2017-Nov-21 21:14 UTC.
Position N 34°42' E 135°15'.

Length 33 m; draft 4.3 m.

Type: Tug. MMSI: 431005792.

Date/timePositionNaut miles runAvg speedWind from/ knotsBaromVisibWave heightAir tempDewpointWater temp
2017-Nov-20 00:30N 34°42' E 135°15'1 2.7
2017-Nov-20 00:01N 34°41' E 135°15'1 1.3
2017-Nov-19 23:30N 34°40' E 135°15'0 0.4
2017-Nov-19 23:00N 34°40' E 135°15'2 4.1
2017-Nov-19 22:30N 34°41' E 135°12'0 0.0
2017-Nov-19 04:42N 34°41' E 135°12'1 7.3
2017-Nov-19 04:30N 34°39' E 135°11'713.6
2017-Nov-19 04:01N 34°36' E 135°04'3 0.6
2017-Nov-18 23:21N 34°37' E 135°01'513.4
2017-Nov-18 23:00N 34°37' E 135°07'510.8
2017-Nov-18 22:30N 34°40' E 135°12'0 0.0
2017-Nov-18 04:48N 34°41' E 135°12'2 8.0
2017-Nov-18 04:30N 34°39' E 135°14'713.0
2017-Nov-18 03:57N 34°35' E 135°21'3 6.0
2017-Nov-18 03:30N 34°34' E 135°24'0 0.2
2017-Nov-18 03:00N 34°33' E 135°24'2 3.8
2017-Nov-18 02:28N 34°35' E 135°22'612.0
2017-Nov-18 02:00N 34°38' E 135°16'4 8.8
2017-Nov-18 01:30N 34°41' E 135°12'0 0.0
2017-Nov-17 05:42N 34°41' E 135°12'1 4.5
2017-Nov-17 05:30N 34°41' E 135°13'510.2
2017-Nov-17 05:00N 34°40' E 135°19'610.9
2017-Nov-17 04:29N 34°39' E 135°26'0 0.7
2017-Nov-17 04:00N 34°39' E 135°25'2 3.4
2017-Nov-17 03:30N 34°38' E 135°23'1 1.6
2017-Nov-17 03:00N 34°39' E 135°24'4 7.5
2017-Nov-17 02:30N 34°40' E 135°20'4 8.5
2017-Nov-17 02:00N 34°41' E 135°15'2 0.1
2017-Nov-16 06:45N 34°41' E 135°12'1 5.1
2017-Nov-16 06:30N 34°41' E 135°13'3 6.3
2017-Nov-16 06:00N 34°41' E 135°17'0 0.0
2017-Nov-16 05:30N 34°41' E 135°17'0 0.0
2017-Nov-16 05:00N 34°41' E 135°17'0 0.0
2017-Nov-16 04:30N 34°41' E 135°17'510.4
2017-Nov-16 04:00N 34°40' E 135°23'1 2.1
2017-Nov-16 03:29N 34°39' E 135°24'1 3.0
2017-Nov-16 03:00N 34°38' E 135°23'611.2
2017-Nov-16 02:30N 34°41' E 135°18'0 0.6
2017-Nov-16 02:00N 34°41' E 135°17'0 0.0
2017-Nov-16 01:29N 34°41' E 135°17'0 0.0
2017-Nov-16 01:00N 34°41' E 135°17'0 0.0
2017-Nov-16 00:30N 34°41' E 135°17'0 0.0
2017-Nov-16 00:00N 34°41' E 135°17'0 0.0
2017-Nov-15 23:30N 34°41' E 135°17'0 0.0
2017-Nov-15 23:00N 34°41' E 135°17'0 0.2
2017-Nov-15 22:30N 34°41' E 135°17'1 2.7
2017-Nov-15 22:00N 34°40' E 135°18'3 6.3
2017-Nov-15 21:30N 34°41' E 135°14'2 0.1
2017-Nov-15 07:15N 34°41' E 135°12'1 5.7
2017-Nov-15 07:00N 34°41' E 135°14'1 2.6
2017-Nov-15 06:30N 34°42' E 135°15'2 3.8
2017-Nov-15 06:00N 34°41' E 135°13'1 0.2
2017-Nov-15 01:41N 34°41' E 135°12'1 3.6
2017-Nov-15 01:30N 34°41' E 135°13'4 7.2
2017-Nov-15 01:00N 34°41' E 135°17'0 0.4
2017-Nov-15 00:30N 34°41' E 135°17'1 1.7
2017-Nov-14 23:59N 34°40' E 135°18'0 0.4
2017-Nov-14 23:30N 34°40' E 135°18'3 5.4
2017-Nov-14 23:00N 34°41' E 135°15'2 0.2
2017-Nov-14 10:00N 34°41' E 135°12'3 5.8
2017-Nov-14 09:30N 34°41' E 135°16'0 0.7
2017-Nov-14 09:00N 34°41' E 135°16'1 2.7
2017-Nov-14 08:30N 34°41' E 135°18'0 0.7
2017-Nov-14 08:00N 34°41' E 135°17'0 0.0
2017-Nov-14 07:30N 34°41' E 135°17'0 0.0
2017-Nov-14 07:00N 34°41' E 135°17'0 0.0
2017-Nov-14 06:30N 34°41' E 135°17'0 0.9
2017-Nov-14 06:00N 34°41' E 135°18'0 0.9
2017-Nov-14 05:30N 34°41' E 135°17'4 7.7
2017-Nov-14 05:00N 34°41' E 135°12'0 0.0
2017-Nov-13 23:33N 34°41' E 135°12'0 2.0
2017-Nov-13 23:30N 34°41' E 135°12'3 5.8
2017-Nov-13 23:00N 34°42' E 135°15'0 0.6
2017-Nov-13 22:30N 34°42' E 135°15'2 4.2
2017-Nov-13 22:00N 34°40' E 135°15'2 0.1
2017-Nov-12 03:03N 34°41' E 135°12'0 0.3
2017-Nov-12 03:00N 34°41' E 135°12'4 8.3
2017-Nov-12 02:30N 34°41' E 135°17'611.9
2017-Nov-12 02:00N 34°38' E 135°24'1 2.1
2017-Nov-12 01:30N 34°37' E 135°25'1 2.7
2017-Nov-12 01:00N 34°38' E 135°23'0 0.9
2017-Nov-12 00:30N 34°38' E 135°23'611.0
2017-Nov-12 00:00N 34°41' E 135°17'4 7.9
2017-Nov-11 23:30N 34°41' E 135°12'0 0.0
2017-Nov-11 10:05N 34°41' E 135°12'0 1.3
2017-Nov-11 10:01N 34°41' E 135°12'610.8
2017-Nov-11 09:30N 34°40' E 135°19'510.7
2017-Nov-11 09:00N 34°38' E 135°24'0 0.3
2017-Nov-11 08:31N 34°38' E 135°25'2 3.8
2017-Nov-11 07:59N 34°40' E 135°24'0 0.0
2017-Nov-11 07:30N 34°40' E 135°24'0 0.0
2017-Nov-11 06:59N 34°40' E 135°24'1 1.1
2017-Nov-11 06:23N 34°39' E 135°25'0 1.1
2017-Nov-11 06:00N 34°39' E 135°25'2 4.0
2017-Nov-11 05:30N 34°38' E 135°23'0 0.2
2017-Nov-11 05:00N 34°37' E 135°23'2 3.3
2017-Nov-11 04:30N 34°36' E 135°24'0 0.0
2017-Nov-11 04:00N 34°36' E 135°24'0 0.0
2017-Nov-11 03:30N 34°36' E 135°24'0 0.0
2017-Nov-11 03:00N 34°36' E 135°24'0 0.0
2017-Nov-11 02:30N 34°36' E 135°24'3 6.2
2017-Nov-11 01:57N 34°33' E 135°25'0 0.3
2017-Nov-11 01:20N 34°33' E 135°25'0 0.2
2017-Nov-11 01:00N 34°33' E 135°25'1 1.1
2017-Nov-11 00:30N 34°33' E 135°25'2 4.3
2017-Nov-11 00:00N 34°33' E 135°23'2 3.7
2017-Nov-10 23:30N 34°34' E 135°21'3 6.7
2017-Nov-10 23:00N 34°32' E 135°24'0 0.5
2017-Nov-10 22:28N 34°32' E 135°24'1 2.9
2017-Nov-10 22:00N 34°33' E 135°23'1 1.8
2017-Nov-10 21:24N 34°32' E 135°24'410.0
2017-Nov-10 21:00N 34°36' E 135°25'2 3.2
2017-Nov-10 20:29N 34°35' E 135°27'1 0.7
2017-Nov-10 19:45N 34°35' E 135°27'0 0.2
2017-Nov-10 19:27N 34°35' E 135°27'510.8
2017-Nov-10 18:59N 34°38' E 135°22'612.3
2017-Nov-10 18:30N 34°41' E 135°15'  
Track history (hours):
 
Tides and Currents Weather Stations Pressure Air Temp Water Temp Dewpoint Dewpoint Depression Visibility Wind Speed Wind Dir Waves Ship Positions

Rokkomaru

Last reported at 2017-Nov-20 00:30 UTC. Time now 2017-Nov-21 21:14 UTC.
Position N 34°42' E 135°15'.

Length 33 m; draft 4.3 m.

Type: Tug. MMSI: 431005792.

Date/timePositionNaut miles runAvg speedWind from/ knotsBaromVisibWave heightAir tempDewpointWater temp
2017-Nov-20 00:30N 34°42' E 135°15'1 2.7
2017-Nov-20 00:01N 34°41' E 135°15'1 1.3
2017-Nov-19 23:30N 34°40' E 135°15'0 0.4
2017-Nov-19 23:00N 34°40' E 135°15'2 4.1
2017-Nov-19 22:30N 34°41' E 135°12'0 0.0
2017-Nov-19 04:42N 34°41' E 135°12'1 7.3
2017-Nov-19 04:30N 34°39' E 135°11'713.6
2017-Nov-19 04:01N 34°36' E 135°04'3 0.6
2017-Nov-18 23:21N 34°37' E 135°01'513.4
2017-Nov-18 23:00N 34°37' E 135°07'510.8
2017-Nov-18 22:30N 34°40' E 135°12'0 0.0
2017-Nov-18 04:48N 34°41' E 135°12'2 8.0
2017-Nov-18 04:30N 34°39' E 135°14'713.0
2017-Nov-18 03:57N 34°35' E 135°21'3 6.0
2017-Nov-18 03:30N 34°34' E 135°24'0 0.2
2017-Nov-18 03:00N 34°33' E 135°24'2 3.8
2017-Nov-18 02:28N 34°35' E 135°22'612.0
2017-Nov-18 02:00N 34°38' E 135°16'4 8.8
2017-Nov-18 01:30N 34°41' E 135°12'0 0.0
2017-Nov-17 05:42N 34°41' E 135°12'1 4.5
2017-Nov-17 05:30N 34°41' E 135°13'510.2
2017-Nov-17 05:00N 34°40' E 135°19'610.9
2017-Nov-17 04:29N 34°39' E 135°26'0 0.7
2017-Nov-17 04:00N 34°39' E 135°25'2 3.4
2017-Nov-17 03:30N 34°38' E 135°23'1 1.6
2017-Nov-17 03:00N 34°39' E 135°24'4 7.5
2017-Nov-17 02:30N 34°40' E 135°20'4 8.5
2017-Nov-17 02:00N 34°41' E 135°15'2 0.1
2017-Nov-16 06:45N 34°41' E 135°12'1 5.1
2017-Nov-16 06:30N 34°41' E 135°13'3 6.3
2017-Nov-16 06:00N 34°41' E 135°17'0 0.0
2017-Nov-16 05:30N 34°41' E 135°17'0 0.0
2017-Nov-16 05:00N 34°41' E 135°17'0 0.0
2017-Nov-16 04:30N 34°41' E 135°17'510.4
2017-Nov-16 04:00N 34°40' E 135°23'1 2.1
2017-Nov-16 03:29N 34°39' E 135°24'1 3.0
2017-Nov-16 03:00N 34°38' E 135°23'611.2
2017-Nov-16 02:30N 34°41' E 135°18'0 0.6
2017-Nov-16 02:00N 34°41' E 135°17'0 0.0
2017-Nov-16 01:29N 34°41' E 135°17'0 0.0
2017-Nov-16 01:00N 34°41' E 135°17'0 0.0
2017-Nov-16 00:30N 34°41' E 135°17'0 0.0
2017-Nov-16 00:00N 34°41' E 135°17'0 0.0
2017-Nov-15 23:30N 34°41' E 135°17'0 0.0
2017-Nov-15 23:00N 34°41' E 135°17'0 0.2
2017-Nov-15 22:30N 34°41' E 135°17'1 2.7
2017-Nov-15 22:00N 34°40' E 135°18'3 6.3
2017-Nov-15 21:30N 34°41' E 135°14'2 0.1
2017-Nov-15 07:15N 34°41' E 135°12'1 5.7
2017-Nov-15 07:00N 34°41' E 135°14'1 2.6
2017-Nov-15 06:30N 34°42' E 135°15'2 3.8
2017-Nov-15 06:00N 34°41' E 135°13'1 0.2
2017-Nov-15 01:41N 34°41' E 135°12'1 3.6
2017-Nov-15 01:30N 34°41' E 135°13'4 7.2
2017-Nov-15 01:00N 34°41' E 135°17'0 0.4
2017-Nov-15 00:30N 34°41' E 135°17'1 1.7
2017-Nov-14 23:59N 34°40' E 135°18'0 0.4
2017-Nov-14 23:30N 34°40' E 135°18'3 5.4
2017-Nov-14 23:00N 34°41' E 135°15'2 0.2
2017-Nov-14 10:00N 34°41' E 135°12'3 5.8
2017-Nov-14 09:30N 34°41' E 135°16'0 0.7
2017-Nov-14 09:00N 34°41' E 135°16'1 2.7
2017-Nov-14 08:30N 34°41' E 135°18'0 0.7
2017-Nov-14 08:00N 34°41' E 135°17'0 0.0
2017-Nov-14 07:30N 34°41' E 135°17'0 0.0
2017-Nov-14 07:00N 34°41' E 135°17'0 0.0
2017-Nov-14 06:30N 34°41' E 135°17'0 0.9
2017-Nov-14 06:00N 34°41' E 135°18'0 0.9
2017-Nov-14 05:30N 34°41' E 135°17'4 7.7
2017-Nov-14 05:00N 34°41' E 135°12'0 0.0
2017-Nov-13 23:33N 34°41' E 135°12'0 2.0
2017-Nov-13 23:30N 34°41' E 135°12'3 5.8
2017-Nov-13 23:00N 34°42' E 135°15'0 0.6
2017-Nov-13 22:30N 34°42' E 135°15'2 4.2
2017-Nov-13 22:00N 34°40' E 135°15'2 0.1
2017-Nov-12 03:03N 34°41' E 135°12'0 0.3
2017-Nov-12 03:00N 34°41' E 135°12'4 8.3
2017-Nov-12 02:30N 34°41' E 135°17'611.9
2017-Nov-12 02:00N 34°38' E 135°24'1 2.1
2017-Nov-12 01:30N 34°37' E 135°25'1 2.7
2017-Nov-12 01:00N 34°38' E 135°23'0 0.9
2017-Nov-12 00:30N 34°38' E 135°23'611.0
2017-Nov-12 00:00N 34°41' E 135°17'4 7.9
2017-Nov-11 23:30N 34°41' E 135°12'0 0.0
2017-Nov-11 10:05N 34°41' E 135°12'0 1.3
2017-Nov-11 10:01N 34°41' E 135°12'610.8
2017-Nov-11 09:30N 34°40' E 135°19'510.7
2017-Nov-11 09:00N 34°38' E 135°24'0 0.3
2017-Nov-11 08:31N 34°38' E 135°25'2 3.8
2017-Nov-11 07:59N 34°40' E 135°24'0 0.0
2017-Nov-11 07:30N 34°40' E 135°24'0 0.0
2017-Nov-11 06:59N 34°40' E 135°24'1 1.1
2017-Nov-11 06:23N 34°39' E 135°25'0 1.1
2017-Nov-11 06:00N 34°39' E 135°25'2 4.0
2017-Nov-11 05:30N 34°38' E 135°23'0 0.2
2017-Nov-11 05:00N 34°37' E 135°23'2 3.3
2017-Nov-11 04:30N 34°36' E 135°24'0 0.0
2017-Nov-11 04:00N 34°36' E 135°24'0 0.0
2017-Nov-11 03:30N 34°36' E 135°24'0 0.0
2017-Nov-11 03:00N 34°36' E 135°24'0 0.0
2017-Nov-11 02:30N 34°36' E 135°24'3 6.2
2017-Nov-11 01:57N 34°33' E 135°25'0 0.3
2017-Nov-11 01:20N 34°33' E 135°25'0 0.2
2017-Nov-11 01:00N 34°33' E 135°25'1 1.1
2017-Nov-11 00:30N 34°33' E 135°25'2 4.3
2017-Nov-11 00:00N 34°33' E 135°23'2 3.7
2017-Nov-10 23:30N 34°34' E 135°21'3 6.7
2017-Nov-10 23:00N 34°32' E 135°24'0 0.5
2017-Nov-10 22:28N 34°32' E 135°24'1 2.9
2017-Nov-10 22:00N 34°33' E 135°23'1 1.8
2017-Nov-10 21:24N 34°32' E 135°24'410.0
2017-Nov-10 21:00N 34°36' E 135°25'2 3.2
2017-Nov-10 20:29N 34°35' E 135°27'1 0.7
2017-Nov-10 19:45N 34°35' E 135°27'0 0.2
2017-Nov-10 19:27N 34°35' E 135°27'510.8
2017-Nov-10 18:59N 34°38' E 135°22'612.3
2017-Nov-10 18:30N 34°41' E 135°15'  

Dump ship's entire track history